Time;durP1;ratioP1;P1;durP2;ratioP2;P2;SDS_P1;SDS_P2;PMS_P1;PMS_P2;Temp;Humidity;BMP_temperature;BMP_pressure;BME280_temperature;BME280_humidity;BME280_pressure;Samples;Min_cycle;Max_cycle;Signal;HPM_P1;HPM_P2
2023/10/18 00:02:49;;;;;;;13.27;5.15;;;;;;;;;;5080703;28;20522;-59
2023/10/18 00:05:20;;;;;;;13.48;5.00;;;;;;;;;;5080293;28;20547;-58
2023/10/18 00:07:48;;;;;;;11.32;5.30;;;;;;;;;;5077396;28;20440;-59
2023/10/18 00:10:17;;;;;;;9.48;4.93;;;;;;;;;;5089971;28;20036;-58
2023/10/18 00:12:44;;;;;;;12.82;6.25;;;;;;;;;;5092170;28;20162;-59
2023/10/18 00:15:11;;;;;;;9.52;5.55;;;;;;;;;;5076163;28;20050;-59
2023/10/18 00:17:38;;;;;;;11.02;5.20;;;;;;;;;;5073299;28;20052;-59
2023/10/18 00:20:13;;;;;;;12.05;5.70;;;;;;;;;;5078425;28;20045;-58
2023/10/18 00:22:39;;;;;;;12.70;6.30;;;;;;;;;;5072637;28;20082;-59
2023/10/18 00:25:06;;;;;;;12.98;5.93;;;;;;;;;;5070304;28;20047;-59
2023/10/18 00:27:33;;;;;;;10.82;6.43;;;;;;;;;;5072141;28;20083;-59
2023/10/18 00:29:59;;;;;;;12.55;6.25;;;;;;;;;;5071086;28;20071;-59
2023/10/18 00:32:28;;;;;;;12.10;5.45;;;;;;;;;;5070803;28;20044;-59
2023/10/18 00:34:54;;;;;;;14.05;6.38;;;;;;;;;;5071398;28;20449;-58
2023/10/18 00:37:21;;;;;;;12.80;6.10;;;;;;;;;;5071277;28;20044;-58
2023/10/18 00:39:47;;;;;;;13.82;6.50;;;;;;;;;;5068683;28;20068;-59
2023/10/18 00:42:27;;;;;;;13.57;6.97;;;;;;;;;;5068142;28;20047;-59
2023/10/18 00:45:01;;;;;;;8.65;5.50;;;;;;;;;;5069549;28;20055;-59
2023/10/18 00:47:29;;;;;;;9.60;5.38;;;;;;;;;;5070542;28;20106;-59
2023/10/18 00:49:55;;;;;;;14.10;6.30;;;;;;;;;;5071971;28;20111;-58
2023/10/18 00:52:24;;;;;;;12.65;6.25;;;;;;;;;;5070976;28;20063;-59
2023/10/18 00:54:51;;;;;;;14.57;6.50;;;;;;;;;;5068893;28;20041;-59
2023/10/18 00:57:22;;;;;;;11.65;6.55;;;;;;;;;;5071021;28;20227;-58
2023/10/18 00:59:51;;;;;;;11.82;6.22;;;;;;;;;;5070713;28;20106;-59
2023/10/18 01:02:19;;;;;;;13.23;7.75;;;;;;;;;;5070585;28;20056;-58
2023/10/18 01:04:52;;;;;;;13.10;6.85;;;;;;;;;;5069932;28;20083;-58
2023/10/18 01:07:20;;;;;;;11.00;6.68;;;;;;;;;;5069865;28;20518;-59
2023/10/18 01:09:53;;;;;;;13.70;7.10;;;;;;;;;;5070125;28;20446;-59
2023/10/18 01:12:20;;;;;;;12.18;7.57;;;;;;;;;;5068747;28;20121;-59
2023/10/18 01:14:48;;;;;;;15.30;6.43;;;;;;;;;;5069758;28;20484;-59
2023/10/18 01:17:16;;;;;;;9.88;6.60;;;;;;;;;;5069427;28;20044;-58
2023/10/18 01:19:43;;;;;;;15.27;7.05;;;;;;;;;;5069033;28;20082;-59
2023/10/18 01:22:09;;;;;;;13.85;7.40;;;;;;;;;;5067537;28;20048;-58
2023/10/18 01:24:36;;;;;;;12.18;7.15;;;;;;;;;;5071166;28;20036;-58
2023/10/18 01:27:04;;;;;;;14.98;7.80;;;;;;;;;;5069061;28;20040;-58
2023/10/18 01:29:31;;;;;;;17.98;8.90;;;;;;;;;;5068858;28;20132;-59
2023/10/18 01:31:57;;;;;;;13.80;7.63;;;;;;;;;;5069531;28;20047;-59
2023/10/18 01:34:25;;;;;;;14.32;7.47;;;;;;;;;;5058886;28;20045;-58
2023/10/18 01:36:52;;;;;;;15.00;8.88;;;;;;;;;;5066228;28;20079;-58
2023/10/18 01:39:21;;;;;;;18.38;9.20;;;;;;;;;;5070098;28;20404;-58
2023/10/18 01:41:54;;;;;;;14.63;7.97;;;;;;;;;;5069343;28;20126;-58
2023/10/18 01:44:38;;;;;;;15.95;9.13;;;;;;;;;;5067449;28;20044;-59
2023/10/18 01:47:06;;;;;;;16.38;9.30;;;;;;;;;;5068284;28;20044;-59
2023/10/18 01:49:33;;;;;;;18.63;9.63;;;;;;;;;;5064183;28;20081;-59
2023/10/18 01:52:03;;;;;;;17.50;9.20;;;;;;;;;;5063984;28;20048;-59
2023/10/18 01:54:32;;;;;;;16.70;9.35;;;;;;;;;;5069338;28;20048;-58
2023/10/18 01:56:59;;;;;;;20.25;10.50;;;;;;;;;;5065341;28;20144;-59
2023/10/18 01:59:29;;;;;;;17.42;10.02;;;;;;;;;;5068033;28;20049;-59
2023/10/18 02:01:57;;;;;;;22.33;11.68;;;;;;;;;;5067536;28;20207;-58
2023/10/18 02:04:26;;;;;;;18.15;10.25;;;;;;;;;;5068250;28;20104;-59
2023/10/18 02:07:02;;;;;;;18.98;10.40;;;;;;;;;;5069719;28;20048;-59
2023/10/18 02:09:36;;;;;;;20.63;11.13;;;;;;;;;;5066839;28;20049;-58
2023/10/18 02:12:08;;;;;;;20.08;11.13;;;;;;;;;;5067709;28;20119;-58
2023/10/18 02:14:36;;;;;;;23.75;12.25;;;;;;;;;;5066690;28;20041;-59
2023/10/18 02:17:06;;;;;;;23.10;12.30;;;;;;;;;;5069878;28;20111;-58
2023/10/18 02:19:32;;;;;;;17.48;10.85;;;;;;;;;;5069522;28;20489;-58
2023/10/18 02:21:59;;;;;;;23.02;12.13;;;;;;;;;;5069933;28;20095;-59
2023/10/18 02:24:25;;;;;;;23.10;13.55;;;;;;;;;;5058599;28;20509;-58
2023/10/18 02:26:54;;;;;;;20.85;12.63;;;;;;;;;;5070068;28;20044;-59
2023/10/18 02:29:24;;;;;;;20.98;12.43;;;;;;;;;;5070180;28;20057;-58
2023/10/18 02:31:57;;;;;;;20.35;12.48;;;;;;;;;;5068970;28;20044;-58
2023/10/18 02:34:26;;;;;;;24.67;13.40;;;;;;;;;;5068140;28;20397;-58
2023/10/18 02:36:53;;;;;;;25.50;13.23;;;;;;;;;;5069111;28;20158;-59
2023/10/18 02:39:23;;;;;;;25.40;13.55;;;;;;;;;;5069605;28;20530;-58
2023/10/18 02:41:49;;;;;;;21.58;12.25;;;;;;;;;;5064582;28;20119;-59
2023/10/18 02:44:22;;;;;;;24.38;13.52;;;;;;;;;;5069476;28;20032;-59
2023/10/18 02:46:53;;;;;;;26.10;14.38;;;;;;;;;;5069300;28;20578;-58
2023/10/18 02:49:22;;;;;;;25.15;14.10;;;;;;;;;;5070282;28;20059;-59
2023/10/18 02:51:49;;;;;;;23.08;13.82;;;;;;;;;;5069020;28;20056;-58
2023/10/18 02:56:51;;;;;;;21.60;12.63;;;;;;;;;;5069494;28;20049;-58
2023/10/18 02:59:31;;;;;;;24.05;14.27;;;;;;;;;;5067679;28;20048;-58
2023/10/18 03:02:01;;;;;;;27.52;13.18;;;;;;;;;;5067597;28;20519;-58
2023/10/18 03:04:29;;;;;;;22.67;14.43;;;;;;;;;;5072573;28;20424;-58
2023/10/18 03:06:55;;;;;;;28.92;14.13;;;;;;;;;;5073206;28;20148;-59
2023/10/18 03:09:38;;;;;;;23.98;14.60;;;;;;;;;;5073630;28;20033;-58
2023/10/18 03:12:06;;;;;;;25.90;14.13;;;;;;;;;;5073204;28;20102;-59
2023/10/18 03:14:39;;;;;;;25.77;13.98;;;;;;;;;;5068220;28;20057;-59
2023/10/18 03:19:50;;;;;;;22.20;14.25;;;;;;;;;;5070810;28;20390;-59
2023/10/18 03:22:20;;;;;;;28.02;14.35;;;;;;;;;;5065628;28;20058;-59
2023/10/18 03:24:56;;;;;;;21.58;13.65;;;;;;;;;;5072516;28;20048;-58
2023/10/18 03:27:33;;;;;;;23.52;13.48;;;;;;;;;;5072464;28;20499;-59
2023/10/18 03:30:10;;;;;;;31.00;16.23;;;;;;;;;;5073083;28;20095;-58
2023/10/18 03:32:38;;;;;;;21.58;13.32;;;;;;;;;;5070244;28;20036;-58
2023/10/18 03:35:08;;;;;;;25.30;13.63;;;;;;;;;;5068813;28;20040;-59
2023/10/18 03:37:38;;;;;;;24.92;15.07;;;;;;;;;;5073477;28;20048;-58
2023/10/18 03:40:17;;;;;;;25.20;13.95;;;;;;;;;;5073471;28;20051;-59
2023/10/18 03:42:45;;;;;;;24.27;14.38;;;;;;;;;;5070855;28;20052;-59
2023/10/18 03:45:11;;;;;;;21.92;13.52;;;;;;;;;;5073295;28;20489;-59
2023/10/18 03:47:37;;;;;;;26.05;13.45;;;;;;;;;;5073341;28;20041;-58
2023/10/18 03:50:16;;;;;;;22.30;13.80;;;;;;;;;;5070796;28;20128;-59
2023/10/18 03:52:45;;;;;;;22.40;14.50;;;;;;;;;;5072166;28;20503;-59
2023/10/18 03:55:18;;;;;;;22.33;13.73;;;;;;;;;;5072955;28;20087;-58
2023/10/18 03:57:44;;;;;;;23.15;13.70;;;;;;;;;;5071730;28;20080;-59
2023/10/18 04:02:52;;;;;;;26.38;14.07;;;;;;;;;;5068035;28;20087;-59
2023/10/18 04:05:42;;;;;;;23.33;14.55;;;;;;;;;;5072331;28;20106;-59
2023/10/18 04:08:14;;;;;;;23.50;15.13;;;;;;;;;;5060180;28;20058;-59
2023/10/18 04:10:41;;;;;;;25.88;14.02;;;;;;;;;;5071907;28;20060;-58
2023/10/18 04:13:11;;;;;;;25.77;14.50;;;;;;;;;;5072730;28;20052;-58
2023/10/18 04:15:39;;;;;;;25.85;14.90;;;;;;;;;;5070153;28;20048;-59
2023/10/18 04:20:35;;;;;;;24.70;14.50;;;;;;;;;;5066107;28;20052;-58
2023/10/18 04:23:25;;;;;;;26.83;15.48;;;;;;;;;;5072017;28;20036;-58
2023/10/18 04:25:58;;;;;;;26.52;15.15;;;;;;;;;;5069984;28;20041;-58
2023/10/18 04:28:25;;;;;;;26.27;15.13;;;;;;;;;;5071583;28;20452;-59
2023/10/18 04:30:59;;;;;;;26.30;14.93;;;;;;;;;;5070616;28;20287;-59
2023/10/18 04:33:25;;;;;;;29.48;15.73;;;;;;;;;;5068406;28;20040;-59
2023/10/18 04:35:59;;;;;;;29.55;16.25;;;;;;;;;;5070006;28;20507;-59
2023/10/18 04:38:42;;;;;;;27.70;15.63;;;;;;;;;;5069889;28;20040;-59
2023/10/18 04:41:09;;;;;;;28.23;16.98;;;;;;;;;;5063798;28;20079;-58
2023/10/18 04:43:36;;;;;;;32.40;17.83;;;;;;;;;;5070913;28;20170;-58
2023/10/18 04:51:33;;;;;;;25.45;15.93;;;;;;;;;;5070191;28;20041;-58
2023/10/18 04:54:08;;;;;;;22.25;15.77;;;;;;;;;;5071269;28;20087;-59
2023/10/18 04:56:34;;;;;;;29.95;16.88;;;;;;;;;;5065082;28;20057;-58
2023/10/18 04:59:06;;;;;;;26.17;16.55;;;;;;;;;;5068209;28;20040;-58
2023/10/18 05:01:36;;;;;;;28.80;17.95;;;;;;;;;;5068246;28;20532;-59
2023/10/18 05:04:20;;;;;;;29.40;17.00;;;;;;;;;;5070151;28;20407;-58
2023/10/18 05:06:54;;;;;;;28.13;18.23;;;;;;;;;;5065129;28;20044;-59
2023/10/18 05:09:31;;;;;;;27.77;17.65;;;;;;;;;;5066795;28;20465;-58
2023/10/18 05:12:47;;;;;;;24.23;16.05;;;;;;;;;;5070707;28;20124;-58
2023/10/18 05:17:44;;;;;;;27.92;17.60;;;;;;;;;;5069847;28;20119;-58
2023/10/18 05:20:46;;;;;;;34.35;18.77;;;;;;;;;;5069876;28;20036;-58
2023/10/18 05:23:00;;;;;;;25.95;17.80;;;;;;;;;;5070727;28;20132;-59
2023/10/18 05:25:38;;;;;;;30.63;18.05;;;;;;;;;;5068504;28;20033;-59
2023/10/18 05:28:47;;;;;;;29.45;17.33;;;;;;;;;;5066125;28;20146;-59
2023/10/18 05:43:51;;;;;;;28.60;17.95;;;;;;;;;;5060961;28;20080;-58
2023/10/18 05:46:20;;;;;;;29.50;18.33;;;;;;;;;;5059747;28;20124;-62
2023/10/18 05:48:46;;;;;;;35.45;19.48;;;;;;;;;;5060334;28;20093;-58
2023/10/18 05:51:26;;;;;;;32.38;18.10;;;;;;;;;;5060803;28;20037;-59
2023/10/18 05:53:59;;;;;;;29.38;18.30;;;;;;;;;;5061047;28;20051;-59
2023/10/18 05:56:31;;;;;;;28.88;18.85;;;;;;;;;;5061249;28;20053;-59
2023/10/18 06:01:47;;;;;;;30.20;18.55;;;;;;;;;;5062030;28;20123;-59
2023/10/18 06:04:15;;;;;;;29.20;19.40;;;;;;;;;;5042838;28;20036;-59
2023/10/18 06:06:43;;;;;;;27.05;17.48;;;;;;;;;;5061270;28;20424;-59
2023/10/18 06:09:10;;;;;;;29.23;18.17;;;;;;;;;;5060803;28;20061;-59
2023/10/18 06:11:36;;;;;;;27.27;17.30;;;;;;;;;;5059152;28;20123;-59
2023/10/18 06:14:09;;;;;;;30.83;19.55;;;;;;;;;;5062262;28;20120;-59
2023/10/18 06:16:35;;;;;;;34.63;18.95;;;;;;;;;;5060826;28;20477;-59
2023/10/18 06:19:03;;;;;;;31.70;18.80;;;;;;;;;;5060569;28;20048;-59
2023/10/18 06:21:36;;;;;;;29.25;18.58;;;;;;;;;;5061687;28;20454;-59
2023/10/18 06:24:10;;;;;;;28.75;18.08;;;;;;;;;;5059847;28;20039;-59
2023/10/18 06:26:40;;;;;;;28.25;18.27;;;;;;;;;;5063494;28;20045;-59
2023/10/18 06:29:11;;;;;;;31.67;19.00;;;;;;;;;;5059596;28;20139;-59
2023/10/18 06:31:42;;;;;;;32.20;18.85;;;;;;;;;;5058961;28;20476;-59
2023/10/18 06:34:17;;;;;;;30.77;19.15;;;;;;;;;;5057865;28;20134;-58
2023/10/18 06:36:44;;;;;;;31.73;19.05;;;;;;;;;;5056735;28;20044;-60
2023/10/18 06:39:28;;;;;;;30.13;19.48;;;;;;;;;;5069949;28;20036;-58
2023/10/18 06:41:57;;;;;;;30.08;19.52;;;;;;;;;;5073977;28;20096;-59
2023/10/18 06:44:27;;;;;;;30.35;19.50;;;;;;;;;;5073052;28;20395;-59
2023/10/18 06:46:54;;;;;;;28.23;19.30;;;;;;;;;;5072779;28;20061;-59
2023/10/18 06:49:20;;;;;;;31.85;20.83;;;;;;;;;;5074237;28;20036;-59
2023/10/18 06:51:50;;;;;;;30.67;19.92;;;;;;;;;;5072305;28;20049;-58
2023/10/18 06:54:30;;;;;;;34.47;20.15;;;;;;;;;;5073511;28;20591;-59
2023/10/18 06:56:57;;;;;;;29.60;18.67;;;;;;;;;;5069025;28;20468;-59
2023/10/18 06:59:28;;;;;;;29.63;19.40;;;;;;;;;;5072532;28;20123;-59
2023/10/18 07:01:54;;;;;;;30.58;19.38;;;;;;;;;;5069367;28;20545;-59
2023/10/18 07:04:28;;;;;;;29.50;19.83;;;;;;;;;;5071800;28;20048;-59
2023/10/18 07:06:54;;;;;;;27.30;18.67;;;;;;;;;;5072421;28;21215;-59
2023/10/18 07:09:31;;;;;;;31.88;18.98;;;;;;;;;;5072986;28;20045;-59
2023/10/18 07:11:57;;;;;;;29.08;18.73;;;;;;;;;;5073532;28;20480;-59
2023/10/18 07:14:24;;;;;;;41.92;19.30;;;;;;;;;;5070292;28;20120;-59
2023/10/18 07:17:00;;;;;;;30.98;17.65;;;;;;;;;;5069381;28;20074;-59
2023/10/18 07:19:29;;;;;;;27.38;17.42;;;;;;;;;;5073016;28;20108;-59
2023/10/18 07:22:00;;;;;;;30.80;18.08;;;;;;;;;;5073171;28;20438;-59
2023/10/18 07:24:34;;;;;;;27.15;17.75;;;;;;;;;;5073492;28;20138;-59
2023/10/18 07:27:03;;;;;;;35.47;18.10;;;;;;;;;;5072804;28;20407;-59
2023/10/18 07:29:31;;;;;;;26.63;17.92;;;;;;;;;;5072161;28;20188;-59
2023/10/18 07:31:59;;;;;;;28.73;17.65;;;;;;;;;;5073445;28;20535;-59
2023/10/18 07:34:32;;;;;;;23.92;15.45;;;;;;;;;;5072669;28;20049;-59
2023/10/18 07:36:58;;;;;;;28.95;18.48;;;;;;;;;;5072685;28;20089;-59
2023/10/18 07:39:25;;;;;;;29.80;18.30;;;;;;;;;;5072455;28;20076;-59
2023/10/18 07:41:52;;;;;;;29.25;18.05;;;;;;;;;;5072287;28;20182;-59
2023/10/18 07:44:18;;;;;;;32.78;17.95;;;;;;;;;;5069376;28;20097;-59
2023/10/18 07:46:45;;;;;;;26.70;17.25;;;;;;;;;;5072999;28;20045;-59
2023/10/18 07:49:13;;;;;;;27.98;17.38;;;;;;;;;;5071151;28;20158;-59
2023/10/18 07:51:49;;;;;;;27.67;17.17;;;;;;;;;;5073197;28;20404;-59
2023/10/18 07:54:21;;;;;;;27.90;17.88;;;;;;;;;;5073139;28;20040;-59
2023/10/18 07:56:50;;;;;;;29.02;16.85;;;;;;;;;;5072374;28;20603;-59
2023/10/18 07:59:32;;;;;;;33.50;16.52;;;;;;;;;;5058063;28;20124;-59
2023/10/18 08:02:19;;;;;;;30.05;16.98;;;;;;;;;;5071036;28;20071;-59
2023/10/18 08:04:47;;;;;;;25.48;16.10;;;;;;;;;;5072005;28;20093;-59
2023/10/18 08:07:19;;;;;;;26.63;16.73;;;;;;;;;;5069923;28;20048;-60
2023/10/18 08:09:48;;;;;;;29.80;16.33;;;;;;;;;;5070406;28;20373;-60
2023/10/18 08:14:54;;;;;;;23.95;15.60;;;;;;;;;;5072702;28;20481;-60
2023/10/18 08:17:30;;;;;;;26.80;16.17;;;;;;;;;;5071539;28;20036;-60
2023/10/18 08:20:54;;;;;;;22.23;15.65;;;;;;;;;;5068588;28;20382;-60
2023/10/18 08:22:43;;;;;;;26.92;14.98;;;;;;;;;;5069970;28;20127;-60
2023/10/18 08:25:21;;;;;;;22.63;14.98;;;;;;;;;;5070562;28;20048;-60
2023/10/18 08:27:54;;;;;;;29.20;14.70;;;;;;;;;;5070416;28;20888;-60
2023/10/18 08:30:24;;;;;;;23.77;14.65;;;;;;;;;;5067426;28;20060;-60
2023/10/18 08:32:52;;;;;;;25.08;14.75;;;;;;;;;;5070811;28;20040;-60
2023/10/18 08:35:21;;;;;;;21.35;13.45;;;;;;;;;;5072377;28;20064;-60
2023/10/18 08:37:48;;;;;;;24.73;13.13;;;;;;;;;;5069358;28;20036;-60
2023/10/18 08:40:27;;;;;;;21.48;13.40;;;;;;;;;;5063874;28;20036;-60
2023/10/18 08:42:57;;;;;;;21.55;12.40;;;;;;;;;;5062920;28;20072;-60
2023/10/18 08:45:23;;;;;;;19.85;11.90;;;;;;;;;;5068579;28;20492;-60
2023/10/18 08:47:56;;;;;;;19.35;13.23;;;;;;;;;;5067613;28;20037;-60
2023/10/18 08:50:25;;;;;;;16.85;11.57;;;;;;;;;;5067832;28;20128;-60
2023/10/18 08:52:51;;;;;;;17.80;11.73;;;;;;;;;;5071188;28;20052;-60
2023/10/18 08:58:08;;;;;;;18.20;12.02;;;;;;;;;;5070756;28;20052;-60
2023/10/18 09:03:00;;;;;;;21.27;12.30;;;;;;;;;;5068780;28;20047;-60
2023/10/18 09:05:27;;;;;;;17.23;11.45;;;;;;;;;;5069874;28;20099;-60
2023/10/18 09:07:53;;;;;;;18.92;11.30;;;;;;;;;;5069258;28;20058;-60
2023/10/18 09:18:21;;;;;;;15.85;11.13;;;;;;;;;;5071485;28;20048;-59
2023/10/18 09:20:47;;;;;;;19.33;11.05;;;;;;;;;;5070462;28;20135;-60
2023/10/18 09:23:20;;;;;;;19.50;12.00;;;;;;;;;;5067089;28;20048;-60
2023/10/18 09:25:50;;;;;;;19.65;11.02;;;;;;;;;;5070881;28;20500;-59
2023/10/18 09:28:30;;;;;;;20.25;11.05;;;;;;;;;;5070420;28;20090;-59
2023/10/18 09:31:02;;;;;;;17.73;11.23;;;;;;;;;;5069883;28;20058;-69
2023/10/18 09:33:33;;;;;;;15.90;11.00;;;;;;;;;;5069348;28;20052;-59
2023/10/18 09:36:05;;;;;;;17.10;11.10;;;;;;;;;;5071313;28;20045;-59
2023/10/18 09:38:41;;;;;;;15.68;10.88;;;;;;;;;;5070956;28;20051;-59
2023/10/18 09:41:08;;;;;;;20.58;11.38;;;;;;;;;;5067890;28;20515;-59
2023/10/18 09:43:36;;;;;;;14.48;9.82;;;;;;;;;;5068634;28;20052;-59
2023/10/18 09:46:05;;;;;;;16.38;9.63;;;;;;;;;;5070340;28;20327;-61
2023/10/18 09:48:32;;;;;;;18.33;9.93;;;;;;;;;;5069124;28;20053;-65
2023/10/18 09:51:08;;;;;;;17.98;10.43;;;;;;;;;;5069961;28;20496;-61
2023/10/18 09:53:36;;;;;;;16.10;10.45;;;;;;;;;;5069635;28;20083;-61
2023/10/18 09:56:02;;;;;;;14.88;9.80;;;;;;;;;;5068175;28;20109;-61
2023/10/18 09:58:33;;;;;;;16.10;9.52;;;;;;;;;;5071070;28;20079;-60
2023/10/18 10:01:13;;;;;;;17.63;10.38;;;;;;;;;;5058862;28;20063;-61
2023/10/18 10:03:42;;;;;;;19.98;10.95;;;;;;;;;;5068682;28;20052;-61
2023/10/18 10:06:08;;;;;;;16.70;10.27;;;;;;;;;;5069736;28;20068;-61
2023/10/18 10:08:36;;;;;;;16.70;10.82;;;;;;;;;;5068880;28;20068;-61
2023/10/18 10:11:14;;;;;;;23.42;12.07;;;;;;;;;;5069896;28;20457;-60
2023/10/18 10:13:42;;;;;;;14.30;9.52;;;;;;;;;;5070743;28;20044;-61
2023/10/18 10:16:09;;;;;;;14.90;10.48;;;;;;;;;;5067926;28;20037;-61
2023/10/18 10:18:39;;;;;;;15.95;10.02;;;;;;;;;;5069602;28;20040;-61
2023/10/18 10:21:08;;;;;;;14.98;9.05;;;;;;;;;;5070828;28;20117;-61
2023/10/18 10:23:35;;;;;;;13.77;9.55;;;;;;;;;;5069054;28;20111;-61
2023/10/18 10:26:11;;;;;;;16.75;9.20;;;;;;;;;;5069403;28;20056;-61
2023/10/18 10:31:56;;;;;;;15.95;9.10;;;;;;;;;;5068090;28;20076;-61
2023/10/18 10:34:26;;;;;;;13.77;8.88;;;;;;;;;;5063239;28;20367;-60
2023/10/18 10:37:12;;;;;;;15.00;8.60;;;;;;;;;;5065186;28;20559;-60
2023/10/18 10:45:38;;;;;;;11.70;7.97;;;;;;;;;;5069736;28;20132;-61
2023/10/18 10:48:17;;;;;;;12.63;8.00;;;;;;;;;;5069635;28;20067;-61
2023/10/18 10:50:50;;;;;;;13.85;8.13;;;;;;;;;;5067936;28;20052;-60
2023/10/18 10:53:36;;;;;;;11.75;8.02;;;;;;;;;;5068482;28;20041;-61
2023/10/18 10:56:16;;;;;;;12.63;7.97;;;;;;;;;;5057803;28;20054;-61
2023/10/18 10:58:44;;;;;;;13.75;8.23;;;;;;;;;;5067221;28;20105;-61
2023/10/18 11:01:12;;;;;;;14.35;7.90;;;;;;;;;;5069512;28;20406;-61
2023/10/18 11:03:54;;;;;;;14.82;8.75;;;;;;;;;;5068237;28;20397;-61
2023/10/18 11:06:24;;;;;;;12.15;8.15;;;;;;;;;;5069548;28;20113;-61
2023/10/18 11:08:52;;;;;;;13.93;7.75;;;;;;;;;;5068929;28;20398;-59
2023/10/18 11:11:21;;;;;;;15.05;8.63;;;;;;;;;;5069473;28;20041;-59
2023/10/18 11:13:53;;;;;;;17.48;9.35;;;;;;;;;;5069561;28;20435;-59
2023/10/18 11:16:22;;;;;;;15.07;8.65;;;;;;;;;;5056529;28;20127;-59
2023/10/18 11:18:49;;;;;;;12.07;8.05;;;;;;;;;;5068278;28;20542;-59
2023/10/18 11:21:19;;;;;;;11.82;7.78;;;;;;;;;;5067471;28;20099;-59
2023/10/18 11:23:46;;;;;;;10.95;7.88;;;;;;;;;;5070135;28;20128;-59
2023/10/18 11:26:25;;;;;;;12.18;7.60;;;;;;;;;;5071797;28;20036;-59
2023/10/18 11:28:59;;;;;;;14.15;7.85;;;;;;;;;;5071649;28;20151;-59
2023/10/18 11:31:26;;;;;;;;;;;;;;;;;;5072923;28;20052;-59
2023/10/18 11:34:05;;;;;;;12.85;7.72;;;;;;;;;;5071703;28;19928;-59
2023/10/18 11:36:32;;;;;;;10.05;7.70;;;;;;;;;;5073515;28;20044;-61
2023/10/18 11:39:18;;;;;;;16.25;8.45;;;;;;;;;;5071608;28;20036;-61
2023/10/18 11:41:45;;;;;;;13.55;8.55;;;;;;;;;;5071531;28;20547;-61
2023/10/18 11:44:16;;;;;;;12.35;8.10;;;;;;;;;;5073197;28;20078;-61
2023/10/18 11:46:46;;;;;;;13.65;9.35;;;;;;;;;;5071598;28;20052;-61
2023/10/18 11:49:12;;;;;;;12.50;7.90;;;;;;;;;;5072485;28;20126;-61
2023/10/18 11:51:43;;;;;;;18.17;8.98;;;;;;;;;;5070829;28;20105;-61
2023/10/18 11:54:12;;;;;;;14.45;8.40;;;;;;;;;;5058418;28;20044;-61
2023/10/18 11:56:38;;;;;;;12.82;8.57;;;;;;;;;;5071001;28;20056;-61
2023/10/18 11:59:05;;;;;;;17.13;8.40;;;;;;;;;;5071283;28;20029;-61
2023/10/18 12:01:35;;;;;;;13.30;8.50;;;;;;;;;;5069431;28;20056;-61
2023/10/18 12:04:01;;;;;;;11.95;8.32;;;;;;;;;;5067662;28;20094;-61
2023/10/18 12:06:28;;;;;;;13.30;8.50;;;;;;;;;;5072296;28;20051;-61
2023/10/18 12:11:38;;;;;;;12.68;7.60;;;;;;;;;;5071706;28;20092;-61
2023/10/18 12:14:07;;;;;;;12.20;8.25;;;;;;;;;;5070931;28;20044;-61
2023/10/18 12:16:33;;;;;;;12.60;8.07;;;;;;;;;;5071988;28;20044;-61
2023/10/18 12:19:00;;;;;;;11.80;7.50;;;;;;;;;;5072553;28;20401;-61
2023/10/18 12:21:29;;;;;;;15.48;8.10;;;;;;;;;;5071598;28;20071;-61
2023/10/18 12:23:57;;;;;;;10.88;7.20;;;;;;;;;;5070827;28;20062;-61
2023/10/18 12:26:26;;;;;;;9.93;7.00;;;;;;;;;;5072375;28;20036;-61
2023/10/18 12:28:54;;;;;;;14.85;8.88;;;;;;;;;;5072190;28;20068;-61
2023/10/18 12:31:27;;;;;;;12.70;7.38;;;;;;;;;;5070001;28;20041;-61
2023/10/18 12:33:58;;;;;;;10.80;7.75;;;;;;;;;;5070752;28;20124;-61
2023/10/18 12:36:32;;;;;;;10.38;6.78;;;;;;;;;;5070350;28;20051;-61
2023/10/18 12:38:58;;;;;;;17.42;7.57;;;;;;;;;;5058079;28;20045;-61
2023/10/18 12:41:39;;;;;;;13.48;7.43;;;;;;;;;;5072221;28;20041;-61
2023/10/18 12:44:17;;;;;;;14.38;8.00;;;;;;;;;;5070354;28;20048;-61
2023/10/18 12:46:43;;;;;;;10.93;7.13;;;;;;;;;;5070884;28;20083;-61
2023/10/18 12:49:11;;;;;;;15.05;8.00;;;;;;;;;;5069161;28;20373;-61
2023/10/18 12:51:42;;;;;;;15.23;7.78;;;;;;;;;;5070296;28;20116;-61
2023/10/18 12:54:19;;;;;;;12.05;7.28;;;;;;;;;;5071947;28;20036;-61
2023/10/18 12:59:38;;;;;;;14.10;7.72;;;;;;;;;;5062563;28;20044;-60
2023/10/18 13:02:05;;;;;;;11.73;8.18;;;;;;;;;;5069563;28;20048;-61
2023/10/18 13:04:31;;;;;;;14.93;8.07;;;;;;;;;;5069708;28;20076;-61
2023/10/18 13:07:09;;;;;;;12.98;7.82;;;;;;;;;;5071271;28;20128;-61
2023/10/18 13:09:43;;;;;;;14.80;8.75;;;;;;;;;;5066036;28;20423;-61
2023/10/18 13:12:16;;;;;;;13.52;7.65;;;;;;;;;;5069320;28;20414;-61
2023/10/18 13:14:42;;;;;;;14.07;7.73;;;;;;;;;;5071559;28;20127;-61
2023/10/18 13:17:12;;;;;;;13.90;7.97;;;;;;;;;;5071564;28;20044;-61
2023/10/18 13:19:42;;;;;;;12.73;7.90;;;;;;;;;;5068750;28;20056;-61
2023/10/18 13:22:21;;;;;;;11.52;7.03;;;;;;;;;;5071434;28;20106;-61
2023/10/18 13:24:47;;;;;;;12.07;7.93;;;;;;;;;;5071459;28;20468;-61
2023/10/18 13:27:18;;;;;;;14.98;7.38;;;;;;;;;;5069740;28;20068;-61
2023/10/18 13:30:00;;;;;;;17.50;7.55;;;;;;;;;;5067830;28;20127;-61
2023/10/18 13:32:28;;;;;;;13.15;7.53;;;;;;;;;;5070410;28;20056;-61
2023/10/18 13:34:54;;;;;;;12.35;8.20;;;;;;;;;;5068297;28;20048;-61
2023/10/18 13:37:23;;;;;;;10.63;8.00;;;;;;;;;;5067616;28;20060;-60
2023/10/18 13:39:51;;;;;;;14.70;6.68;;;;;;;;;;5063419;28;20075;-60
2023/10/18 13:42:19;;;;;;;12.40;7.57;;;;;;;;;;5064590;28;20484;-61
2023/10/18 13:44:45;;;;;;;11.82;7.70;;;;;;;;;;5064805;28;20040;-60
2023/10/18 13:47:14;;;;;;;14.40;8.43;;;;;;;;;;5061251;28;20045;-60
2023/10/18 13:49:41;;;;;;;12.48;8.20;;;;;;;;;;5060782;28;20090;-61
2023/10/18 13:52:08;;;;;;;10.88;7.35;;;;;;;;;;5060538;28;20105;-60
2023/10/18 13:54:34;;;;;;;12.50;7.50;;;;;;;;;;5060309;28;20078;-61
2023/10/18 13:57:01;;;;;;;12.75;7.30;;;;;;;;;;5062841;28;20103;-60
2023/10/18 13:59:28;;;;;;;14.63;8.20;;;;;;;;;;5062484;28;20135;-61
2023/10/18 14:01:55;;;;;;;12.07;8.65;;;;;;;;;;5059715;28;20469;-60
2023/10/18 14:04:32;;;;;;;12.13;7.50;;;;;;;;;;5061328;28;20048;-60
2023/10/18 14:06:59;;;;;;;13.45;7.82;;;;;;;;;;5061523;28;20053;-60
2023/10/18 14:09:25;;;;;;;12.25;8.18;;;;;;;;;;5060887;28;20080;-61
2023/10/18 14:11:52;;;;;;;13.32;7.47;;;;;;;;;;5062649;28;20083;-60
2023/10/18 14:14:18;;;;;;;11.80;8.10;;;;;;;;;;5061959;28;20130;-60
2023/10/18 14:16:45;;;;;;;13.10;7.90;;;;;;;;;;5056118;28;20353;-60
2023/10/18 14:19:12;;;;;;;11.52;7.40;;;;;;;;;;5060452;28;20103;-60
2023/10/18 14:21:38;;;;;;;14.68;8.13;;;;;;;;;;5058003;28;20515;-60
2023/10/18 14:24:05;;;;;;;12.48;7.63;;;;;;;;;;5067296;28;20392;-60
2023/10/18 14:26:33;;;;;;;11.38;7.15;;;;;;;;;;5067073;28;20045;-60
2023/10/18 14:29:02;;;;;;;12.77;8.38;;;;;;;;;;5067332;28;20071;-61
2023/10/18 14:31:28;;;;;;;11.85;7.50;;;;;;;;;;5065626;28;20056;-61
2023/10/18 14:33:55;;;;;;;13.57;7.63;;;;;;;;;;5057732;28;20044;-60
2023/10/18 14:36:23;;;;;;;13.18;7.43;;;;;;;;;;5066608;28;20037;-60
2023/10/18 14:38:50;;;;;;;13.48;7.95;;;;;;;;;;5066970;28;20060;-60
2023/10/18 14:41:21;;;;;;;16.00;8.25;;;;;;;;;;5065149;28;20048;-60
2023/10/18 14:43:47;;;;;;;13.38;7.15;;;;;;;;;;5068397;28;20044;-60
2023/10/18 14:46:17;;;;;;;14.30;7.25;;;;;;;;;;5069442;28;20053;-60
2023/10/18 14:48:47;;;;;;;13.25;8.35;;;;;;;;;;5065242;28;20049;-60
2023/10/18 14:51:13;;;;;;;14.02;7.63;;;;;;;;;;5063387;28;20353;-60
2023/10/18 14:53:43;;;;;;;10.98;7.03;;;;;;;;;;5064852;28;20036;-60
2023/10/18 14:56:12;;;;;;;17.65;6.97;;;;;;;;;;5059075;28;20048;-60
2023/10/18 14:58:42;;;;;;;14.25;7.55;;;;;;;;;;5063562;28;20044;-60
2023/10/18 15:01:15;;;;;;;13.52;7.30;;;;;;;;;;5074237;28;20037;-60
2023/10/18 15:03:41;;;;;;;10.65;7.07;;;;;;;;;;5069450;28;20487;-60
2023/10/18 15:06:08;;;;;;;10.25;6.20;;;;;;;;;;5070704;28;20523;-61
2023/10/18 15:08:35;;;;;;;12.85;6.97;;;;;;;;;;5063951;28;20045;-60
2023/10/18 15:11:14;;;;;;;11.95;7.50;;;;;;;;;;5066702;28;20072;-60
2023/10/18 15:13:43;;;;;;;12.43;6.90;;;;;;;;;;5071463;28;20072;-60
2023/10/18 15:16:12;;;;;;;12.65;7.63;;;;;;;;;;5073516;28;20037;-60
2023/10/18 15:18:38;;;;;;;14.75;7.13;;;;;;;;;;5062501;28;20059;-60
2023/10/18 15:21:05;;;;;;;11.60;6.65;;;;;;;;;;5069631;28;20496;-60
2023/10/18 15:23:31;;;;;;;16.42;6.35;;;;;;;;;;5073103;28;20080;-60
2023/10/18 15:26:03;;;;;;;14.35;6.95;;;;;;;;;;5070302;28;20076;-60
2023/10/18 15:28:31;;;;;;;13.57;6.88;;;;;;;;;;5073209;28;20515;-61
2023/10/18 15:31:10;;;;;;;11.82;6.45;;;;;;;;;;5070301;28;20040;-60
2023/10/18 15:33:40;;;;;;;12.38;7.00;;;;;;;;;;5068630;28;20365;-60
2023/10/18 15:36:21;;;;;;;12.02;7.18;;;;;;;;;;5067636;28;20150;-60
2023/10/18 15:38:52;;;;;;;12.43;7.28;;;;;;;;;;5068652;28;20349;-60
2023/10/18 15:41:22;;;;;;;12.48;7.03;;;;;;;;;;5067499;28;20480;-60
2023/10/18 15:43:52;;;;;;;10.55;6.78;;;;;;;;;;5073146;28;20125;-60
2023/10/18 15:46:30;;;;;;;11.98;6.75;;;;;;;;;;5070417;28;20170;-60
2023/10/18 15:49:00;;;;;;;12.57;7.30;;;;;;;;;;5076443;28;20173;-60